Time;durP1;ratioP1;P1;durP2;ratioP2;P2;SDS_P1;SDS_P2;PMS_P1;PMS_P2;Temp;Humidity;BMP_temperature;BMP_pressure;BME280_temperature;BME280_humidity;BME280_pressure;Samples;Min_cycle;Max_cycle;Signal;HPM_P1;HPM_P2
2021/07/27 00:00:38;;;;;;;33.5;29.4;;;;;;;20.7;63.1;100930;;;;
2021/07/27 00:04:37;;;;;;;33.5;29.4;;;;;;;20.8;62.7;100940;;;;
2021/07/27 00:12:37;;;;;;;38.7;34.0;;;;;;;20.5;63.7;100950;;;;
2021/07/27 00:14:37;;;;;;;38.7;34.0;;;;;;;20.7;62.7;100950;;;;
2021/07/27 00:18:37;;;;;;;38.7;34.0;;;;;;;20.6;63.0;100950;;;;
2021/07/27 00:20:37;;;;;;;38.7;34.0;;;;;;;20.5;63.9;100950;;;;
2021/07/27 00:22:37;;;;;;;38.7;34.0;;;;;;;20.6;62.6;100940;;;;
2021/07/27 00:24:37;;;;;;;38.7;34.0;;;;;;;20.7;62.7;100940;;;;
2021/07/27 00:26:37;;;;;;;38.7;34.0;;;;;;;20.5;62.6;100940;;;;
2021/07/27 00:28:37;;;;;;;38.7;34.0;;;;;;;20.6;63.0;100940;;;;
2021/07/27 00:30:37;;;;;;;42.9;38.2;;;;;;;20.5;63.1;100940;;;;
2021/07/27 00:32:37;;;;;;;42.9;38.2;;;;;;;20.4;63.2;100930;;;;
2021/07/27 00:34:37;;;;;;;42.9;38.2;;;;;;;20.6;63.2;100930;;;;
2021/07/27 00:36:37;;;;;;;42.9;38.2;;;;;;;20.5;63.8;100940;;;;
2021/07/27 00:40:37;;;;;;;42.9;38.2;;;;;;;20.4;63.8;100940;;;;
2021/07/27 00:42:37;;;;;;;42.9;38.2;;;;;;;20.3;64.4;100950;;;;
2021/07/27 00:44:37;;;;;;;42.9;38.2;;;;;;;20.4;63.8;100950;;;;
2021/07/27 00:54:37;;;;;;;42.2;37.7;;;;;;;20.5;62.4;100950;;;;
2021/07/27 01:00:37;;;;;;;42.2;37.7;;;;;;;20.4;63.7;100950;;;;
2021/07/27 01:04:37;;;;;;;42.2;37.7;;;;;;;20.3;64.1;100940;;;;
2021/07/27 01:06:37;;;;;;;42.2;37.7;;;;;;;20.4;64.3;100940;;;;
2021/07/27 01:08:37;;;;;;;42.2;37.7;;;;;;;20.3;64.1;100940;;;;
2021/07/27 01:10:37;;;;;;;40.4;36.2;;;;;;;20.4;63.1;100940;;;;
2021/07/27 01:12:38;;;;;;;40.4;36.2;;;;;;;20.5;63.1;100930;;;;
2021/07/27 01:14:37;;;;;;;40.4;36.2;;;;;;;20.4;63.8;100930;;;;
2021/07/27 01:18:45;;;;;;;40.4;36.2;;;;;;;20.5;62.3;100930;;;;
2021/07/27 01:20:49;;;;;;;40.4;36.2;;;;;;;20.3;64.3;100920;;;;
2021/07/27 01:38:58;;;;;;;38.5;34.4;;;;;;;20.3;63.3;100900;;;;
2021/07/27 01:40:47;;;;;;;38.5;34.4;;;;;;;20.4;62.7;100890;;;;
2021/07/27 01:42:39;;;;;;;38.5;34.4;;;;;;;20.3;63.0;100890;;;;
2021/07/27 01:48:37;;;;;;;38.5;34.4;;;;;;;20.1;63.3;100890;;;;
2021/07/27 01:50:37;;;;;;;39.0;34.7;;;;;;;20.3;63.4;100890;;;;
2021/07/27 01:52:37;;;;;;;39.0;34.7;;;;;;;20.2;63.1;100890;;;;
2021/07/27 01:54:41;;;;;;;39.0;34.7;;;;;;;20.1;63.6;100900;;;;
2021/07/27 01:56:37;;;;;;;39.0;34.7;;;;;;;20.2;63.1;100890;;;;
2021/07/27 01:58:37;;;;;;;39.0;34.7;;;;;;;20.1;63.0;100890;;;;
2021/07/27 02:00:37;;;;;;;39.0;34.7;;;;;;;20.0;63.2;100890;;;;
2021/07/27 02:04:37;;;;;;;39.0;34.7;;;;;;;19.9;63.2;100900;;;;
2021/07/27 02:12:39;;;;;;;40.5;33.5;;;;;;;19.8;64.4;100890;;;;
2021/07/27 02:20:37;;;;;;;40.5;33.5;;;;;;;19.7;64.6;100880;;;;
2021/07/27 02:22:37;;;;;;;40.5;33.5;;;;;;;19.6;63.9;100890;;;;
2021/07/27 02:28:37;;;;;;;40.5;33.5;;;;;;;19.4;65.9;100890;;;;
2021/07/27 02:30:39;;;;;;;39.1;34.9;;;;;;;19.6;64.0;100890;;;;
2021/07/27 02:32:37;;;;;;;39.1;34.9;;;;;;;19.5;65.1;100890;;;;
2021/07/27 02:40:37;;;;;;;39.1;34.9;;;;;;;19.3;64.9;100890;;;;
2021/07/27 02:42:37;;;;;;;39.1;34.9;;;;;;;19.2;64.8;100900;;;;
2021/07/27 02:44:37;;;;;;;39.1;34.9;;;;;;;19.4;64.4;100900;;;;
2021/07/27 02:46:37;;;;;;;39.1;34.9;;;;;;;19.3;65.6;100900;;;;
2021/07/27 02:50:37;;;;;;;38.2;33.6;;;;;;;19.4;65.5;100900;;;;
2021/07/27 02:52:37;;;;;;;38.2;33.6;;;;;;;19.3;65.6;100910;;;;
2021/07/27 02:54:37;;;;;;;38.2;33.6;;;;;;;19.2;65.0;100910;;;;
2021/07/27 02:56:37;;;;;;;38.2;33.6;;;;;;;19.1;66.1;100910;;;;
2021/07/27 02:58:39;;;;;;;38.2;33.6;;;;;;;19.2;65.0;100910;;;;
2021/07/27 03:02:37;;;;;;;38.2;33.6;;;;;;;19.1;66.4;100910;;;;
2021/07/27 03:10:37;;;;;;;35.6;31.8;;;;;;;19.2;64.3;100900;;;;
2021/07/27 03:12:37;;;;;;;35.6;31.8;;;;;;;19.0;66.5;100900;;;;
2021/07/27 03:14:37;;;;;;;35.6;31.8;;;;;;;18.9;65.8;100900;;;;
2021/07/27 03:24:37;;;;;;;35.6;31.8;;;;;;;18.8;66.5;100920;;;;
2021/07/27 03:28:37;;;;;;;35.6;31.8;;;;;;;18.7;67.5;100920;;;;
2021/07/27 03:30:37;;;;;;;36.2;32.3;;;;;;;18.8;67.6;100920;;;;
2021/07/27 03:32:37;;;;;;;36.2;32.3;;;;;;;18.7;68.0;100920;;;;
2021/07/27 03:34:37;;;;;;;36.2;32.3;;;;;;;18.8;66.1;100910;;;;
2021/07/27 03:38:37;;;;;;;36.2;32.3;;;;;;;18.7;68.4;100910;;;;
2021/07/27 03:42:37;;;;;;;36.2;32.3;;;;;;;18.5;68.0;100920;;;;
2021/07/27 03:44:37;;;;;;;36.2;32.3;;;;;;;18.6;66.7;100920;;;;
2021/07/27 03:56:37;;;;;;;34.7;31.1;;;;;;;18.5;67.2;100920;;;;
2021/07/27 03:58:37;;;;;;;34.7;31.1;;;;;;;18.6;65.4;100910;;;;
2021/07/27 04:08:37;;;;;;;34.7;31.1;;;;;;;18.5;66.6;100920;;;;
2021/07/27 04:12:37;;;;;;;32.5;29.0;;;;;;;18.4;69.7;100920;;;;
2021/07/27 04:14:37;;;;;;;32.5;29.0;;;;;;;18.5;67.0;100920;;;;
2021/07/27 04:16:37;;;;;;;32.5;29.0;;;;;;;18.4;67.4;100920;;;;
2021/07/27 04:18:37;;;;;;;32.5;29.0;;;;;;;18.5;66.7;100920;;;;
2021/07/27 04:30:37;;;;;;;30.5;27.2;;;;;;;18.8;66.4;100910;;;;
2021/07/27 04:32:37;;;;;;;30.5;27.2;;;;;;;18.5;67.8;100920;;;;
2021/07/27 04:42:37;;;;;;;30.5;27.2;;;;;;;18.6;67.4;100910;;;;
2021/07/27 04:44:37;;;;;;;30.5;27.2;;;;;;;18.5;68.0;100910;;;;
2021/07/27 04:46:37;;;;;;;30.5;27.2;;;;;;;18.6;67.4;100920;;;;
2021/07/27 04:50:37;;;;;;;28.1;25.2;;;;;;;18.8;66.4;100910;;;;
2021/07/27 04:52:37;;;;;;;28.1;25.2;;;;;;;18.7;67.3;100920;;;;
2021/07/27 04:54:42;;;;;;;28.1;25.2;;;;;;;18.6;67.8;100910;;;;
2021/07/27 04:56:37;;;;;;;28.1;25.2;;;;;;;18.7;67.6;100910;;;;
2021/07/27 04:58:37;;;;;;;28.1;25.2;;;;;;;18.6;67.1;100910;;;;
2021/07/27 05:00:37;;;;;;;28.1;25.2;;;;;;;18.5;69.5;100900;;;;
2021/07/27 05:02:37;;;;;;;28.1;25.2;;;;;;;18.6;66.6;100900;;;;
2021/07/27 05:04:37;;;;;;;28.1;25.2;;;;;;;18.5;68.4;100900;;;;
2021/07/27 05:06:37;;;;;;;28.1;25.2;;;;;;;18.6;67.4;100900;;;;
2021/07/27 05:08:37;;;;;;;28.1;25.2;;;;;;;18.5;69.0;100900;;;;
2021/07/27 05:10:37;;;;;;;31.7;28.3;;;;;;;18.7;65.4;100900;;;;
2021/07/27 05:12:37;;;;;;;31.7;28.3;;;;;;;18.5;67.4;100900;;;;
2021/07/27 05:14:37;;;;;;;31.7;28.3;;;;;;;18.7;67.1;100900;;;;
2021/07/27 05:16:37;;;;;;;31.7;28.3;;;;;;;18.6;66.6;100900;;;;
2021/07/27 05:18:37;;;;;;;31.7;28.3;;;;;;;18.7;66.1;100900;;;;
2021/07/27 05:22:37;;;;;;;31.7;28.3;;;;;;;18.8;66.9;100910;;;;
2021/07/27 05:24:37;;;;;;;31.7;28.3;;;;;;;18.7;67.5;100910;;;;
2021/07/27 05:28:37;;;;;;;31.7;28.3;;;;;;;18.6;69.5;100900;;;;
2021/07/27 05:30:37;;;;;;;34.7;31.2;;;;;;;18.7;68.9;100910;;;;
2021/07/27 05:38:37;;;;;;;34.7;31.2;;;;;;;18.8;69.2;100900;;;;
2021/07/27 05:42:37;;;;;;;34.7;31.2;;;;;;;18.7;69.6;100910;;;;
2021/07/27 05:44:37;;;;;;;34.7;31.2;;;;;;;18.8;69.8;100900;;;;
2021/07/27 05:48:38;;;;;;;34.7;31.2;;;;;;;18.9;69.6;100900;;;;
2021/07/27 05:50:37;;;;;;;31.3;28.0;;;;;;;19.0;68.9;100900;;;;
2021/07/27 05:56:37;;;;;;;31.3;28.0;;;;;;;19.1;68.2;100900;;;;
2021/07/27 06:00:37;;;;;;;31.3;28.0;;;;;;;19.2;69.4;100900;;;;
2021/07/27 06:04:37;;;;;;;31.3;28.0;;;;;;;19.4;68.2;100900;;;;
2021/07/27 06:06:37;;;;;;;31.3;28.0;;;;;;;19.5;68.4;100900;;;;
2021/07/27 06:08:37;;;;;;;31.3;28.0;;;;;;;19.6;67.5;100890;;;;
2021/07/27 06:10:37;;;;;;;27.3;24.5;;;;;;;19.8;66.9;100890;;;;
2021/07/27 06:12:37;;;;;;;27.3;24.5;;;;;;;19.7;67.1;100890;;;;
2021/07/27 06:14:37;;;;;;;27.3;24.5;;;;;;;19.8;66.3;100900;;;;
2021/07/27 06:20:37;;;;;;;27.3;24.5;;;;;;;19.9;67.4;100900;;;;
2021/07/27 06:22:37;;;;;;;27.3;24.5;;;;;;;19.7;68.1;100900;;;;
2021/07/27 06:24:37;;;;;;;27.3;24.5;;;;;;;19.8;67.6;100910;;;;
2021/07/27 06:28:37;;;;;;;27.3;24.5;;;;;;;19.9;66.8;100910;;;;
2021/07/27 06:32:37;;;;;;;26.7;23.5;;;;;;;19.8;67.4;100910;;;;
2021/07/27 06:38:37;;;;;;;26.7;23.5;;;;;;;19.9;66.8;100910;;;;
2021/07/27 06:40:37;;;;;;;26.7;23.5;;;;;;;19.8;66.7;100920;;;;
2021/07/27 06:42:37;;;;;;;26.7;23.5;;;;;;;19.9;67.5;100910;;;;
2021/07/27 06:44:37;;;;;;;26.7;23.5;;;;;;;20.0;67.2;100920;;;;
2021/07/27 06:48:37;;;;;;;26.7;23.5;;;;;;;19.9;67.3;100920;;;;
2021/07/27 06:50:37;;;;;;;26.7;23.6;;;;;;;20.0;67.0;100920;;;;
2021/07/27 06:54:37;;;;;;;26.7;23.6;;;;;;;20.1;65.9;100920;;;;
2021/07/27 06:56:37;;;;;;;26.7;23.6;;;;;;;20.2;66.3;100920;;;;
2021/07/27 06:58:37;;;;;;;26.7;23.6;;;;;;;20.3;65.7;100920;;;;
2021/07/27 07:00:40;;;;;;;26.7;23.6;;;;;;;20.1;67.0;100920;;;;
2021/07/27 07:02:41;;;;;;;26.7;23.6;;;;;;;20.2;66.0;100920;;;;
2021/07/27 07:10:37;;;;;;;25.6;22.9;;;;;;;20.4;66.0;100920;;;;
2021/07/27 07:12:37;;;;;;;25.6;22.9;;;;;;;20.5;66.2;100920;;;;
2021/07/27 07:18:37;;;;;;;25.6;22.9;;;;;;;20.6;64.5;100920;;;;
2021/07/27 07:22:37;;;;;;;25.6;22.9;;;;;;;20.5;65.7;100930;;;;
2021/07/27 07:24:37;;;;;;;25.6;22.9;;;;;;;20.4;65.7;100940;;;;
2021/07/27 07:28:37;;;;;;;25.6;22.9;;;;;;;20.5;66.2;100930;;;;
2021/07/27 07:30:37;;;;;;;22.4;20.2;;;;;;;20.6;65.3;100930;;;;
2021/07/27 07:32:37;;;;;;;22.4;20.2;;;;;;;20.5;65.4;100930;;;;
2021/07/27 07:34:37;;;;;;;22.4;20.2;;;;;;;20.6;65.9;100930;;;;
2021/07/27 07:36:37;;;;;;;22.4;20.2;;;;;;;20.7;65.5;100930;;;;
2021/07/27 07:38:37;;;;;;;22.4;20.2;;;;;;;20.8;65.4;100920;;;;
2021/07/27 07:40:41;;;;;;;22.4;20.2;;;;;;;21.0;65.4;100930;;;;
2021/07/27 07:42:37;;;;;;;22.4;20.2;;;;;;;20.9;65.4;100930;;;;
2021/07/27 07:43:36;;;;;;;22.4;20.2;;;;;;;20.9;65.4;100930;;;;
2021/07/27 07:46:37;;;;;;;22.4;20.2;;;;;;;21.0;64.2;100920;;;;
2021/07/27 07:50:37;;;;;;;21.0;18.8;;;;;;;21.3;64.0;100910;;;;
2021/07/27 07:52:37;;;;;;;21.0;18.8;;;;;;;21.4;64.5;100910;;;;
2021/07/27 07:54:38;;;;;;;21.0;18.8;;;;;;;21.5;63.4;100910;;;;
2021/07/27 07:56:37;;;;;;;21.0;18.8;;;;;;;21.7;63.1;100910;;;;
2021/07/27 07:58:37;;;;;;;21.0;18.8;;;;;;;21.8;62.9;100900;;;;
2021/07/27 08:00:37;;;;;;;21.0;18.8;;;;;;;21.9;63.0;100900;;;;
2021/07/27 08:02:37;;;;;;;21.0;18.8;;;;;;;22.0;63.0;100900;;;;
2021/07/27 08:04:37;;;;;;;21.0;18.8;;;;;;;22.2;62.2;100910;;;;
2021/07/27 08:06:37;;;;;;;21.0;18.8;;;;;;;22.1;62.0;100920;;;;
2021/07/27 08:08:39;;;;;;;21.0;18.8;;;;;;;22.2;61.8;100910;;;;
2021/07/27 08:10:37;;;;;;;19.6;17.6;;;;;;;22.3;61.2;100910;;;;
2021/07/27 08:14:37;;;;;;;19.6;17.6;;;;;;;22.4;61.3;100910;;;;
2021/07/27 08:22:37;;;;;;;19.6;17.6;;;;;;;22.5;59.9;100910;;;;
2021/07/27 08:26:37;;;;;;;19.6;17.6;;;;;;;22.6;59.1;100910;;;;
2021/07/27 08:28:37;;;;;;;19.6;17.6;;;;;;;22.8;59.0;100920;;;;
2021/07/27 08:30:37;;;;;;;16.0;14.4;;;;;;;22.7;58.6;100920;;;;
2021/07/27 08:32:37;;;;;;;16.0;14.4;;;;;;;22.6;58.6;100910;;;;
2021/07/27 08:34:37;;;;;;;16.0;14.4;;;;;;;22.4;58.0;100910;;;;
2021/07/27 08:36:37;;;;;;;16.0;14.4;;;;;;;22.6;58.3;100910;;;;
2021/07/27 08:38:37;;;;;;;16.0;14.4;;;;;;;22.7;58.6;100910;;;;
2021/07/27 08:42:37;;;;;;;16.0;14.4;;;;;;;22.8;58.5;100910;;;;
2021/07/27 08:46:37;;;;;;;16.0;14.4;;;;;;;22.9;57.8;100900;;;;
2021/07/27 08:52:37;;;;;;;16.0;14.4;;;;;;;23.0;57.6;100910;;;;
2021/07/27 08:54:39;;;;;;;16.0;14.4;;;;;;;22.9;57.2;100900;;;;
2021/07/27 08:56:37;;;;;;;16.0;14.4;;;;;;;23.0;57.4;100900;;;;
2021/07/27 08:58:37;;;;;;;16.0;14.4;;;;;;;22.9;56.9;100900;;;;
2021/07/27 09:00:37;;;;;;;16.0;14.4;;;;;;;23.1;56.7;100890;;;;
2021/07/27 09:02:38;;;;;;;16.0;14.4;;;;;;;23.2;56.5;100890;;;;
2021/07/27 09:04:37;;;;;;;16.0;14.4;;;;;;;23.4;56.4;100890;;;;
2021/07/27 09:08:37;;;;;;;16.0;14.4;;;;;;;23.6;56.4;100900;;;;
2021/07/27 09:14:37;;;;;;;15.1;13.7;;;;;;;23.5;55.5;100910;;;;
2021/07/27 09:16:37;;;;;;;15.1;13.7;;;;;;;23.6;55.4;100910;;;;
2021/07/27 09:18:37;;;;;;;15.1;13.7;;;;;;;23.7;55.3;100910;;;;
2021/07/27 09:20:39;;;;;;;15.1;13.7;;;;;;;23.5;55.1;100920;;;;
2021/07/27 09:22:37;;;;;;;15.1;13.7;;;;;;;23.2;54.9;100910;;;;
2021/07/27 09:24:38;;;;;;;15.1;13.7;;;;;;;23.4;54.7;100910;;;;
2021/07/27 09:26:37;;;;;;;15.1;13.7;;;;;;;23.5;54.5;100910;;;;
2021/07/27 09:30:37;;;;;;;14.8;13.4;;;;;;;23.7;54.6;100900;;;;
2021/07/27 09:34:37;;;;;;;14.8;13.4;;;;;;;23.5;54.3;100910;;;;
2021/07/27 09:36:37;;;;;;;14.8;13.4;;;;;;;23.6;53.9;100910;;;;
2021/07/27 09:38:38;;;;;;;14.8;13.4;;;;;;;23.5;54.8;100910;;;;
2021/07/27 09:40:37;;;;;;;14.8;13.4;;;;;;;23.8;54.1;100910;;;;
2021/07/27 09:42:37;;;;;;;14.8;13.4;;;;;;;23.7;54.3;100910;;;;
2021/07/27 09:44:37;;;;;;;14.8;13.4;;;;;;;23.9;53.9;100910;;;;
2021/07/27 09:46:37;;;;;;;14.8;13.4;;;;;;;24.1;54.2;100920;;;;
2021/07/27 09:48:39;;;;;;;14.8;13.4;;;;;;;24.2;52.6;100910;;;;
2021/07/27 09:50:37;;;;;;;13.3;12.1;;;;;;;24.3;52.7;100910;;;;
2021/07/27 09:52:37;;;;;;;13.3;12.1;;;;;;;24.4;52.0;100910;;;;
2021/07/27 09:54:37;;;;;;;13.3;12.1;;;;;;;24.7;51.3;100910;;;;
2021/07/27 09:56:37;;;;;;;13.3;12.1;;;;;;;24.6;51.4;100910;;;;
2021/07/27 10:04:37;;;;;;;13.3;12.1;;;;;;;24.5;52.0;100920;;;;
2021/07/27 10:06:37;;;;;;;13.3;12.1;;;;;;;24.3;51.6;100920;;;;
2021/07/27 10:08:37;;;;;;;13.3;12.1;;;;;;;24.2;52.6;100920;;;;
2021/07/27 10:14:37;;;;;;;13.0;11.7;;;;;;;24.4;51.6;100910;;;;
2021/07/27 10:16:37;;;;;;;13.0;11.7;;;;;;;24.1;51.7;100920;;;;
2021/07/27 10:18:37;;;;;;;13.0;11.7;;;;;;;24.2;51.8;100920;;;;
2021/07/27 10:20:37;;;;;;;13.0;11.7;;;;;;;24.1;52.0;100920;;;;
2021/07/27 10:22:37;;;;;;;13.0;11.7;;;;;;;24.4;52.4;100920;;;;
2021/07/27 10:24:37;;;;;;;13.0;11.7;;;;;;;24.2;52.7;100920;;;;
2021/07/27 10:26:37;;;;;;;13.0;11.7;;;;;;;24.3;51.6;100920;;;;
2021/07/27 10:28:37;;;;;;;13.0;11.7;;;;;;;24.1;52.2;100920;;;;
2021/07/27 10:30:37;;;;;;;13.1;11.7;;;;;;;24.4;52.4;100920;;;;
2021/07/27 10:32:40;;;;;;;13.1;11.7;;;;;;;24.5;51.9;100910;;;;
2021/07/27 10:34:40;;;;;;;13.1;11.7;;;;;;;24.4;51.2;100910;;;;
2021/07/27 10:36:37;;;;;;;13.1;11.7;;;;;;;24.3;51.9;100910;;;;
2021/07/27 10:38:37;;;;;;;13.1;11.7;;;;;;;24.4;51.5;100910;;;;
2021/07/27 10:40:37;;;;;;;13.1;11.7;;;;;;;24.7;51.3;100920;;;;
2021/07/27 10:42:37;;;;;;;13.1;11.7;;;;;;;24.6;51.3;100930;;;;
2021/07/27 10:46:37;;;;;;;13.1;11.7;;;;;;;24.7;50.9;100930;;;;
2021/07/27 10:50:37;;;;;;;13.9;12.5;;;;;;;24.8;50.4;100930;;;;
2021/07/27 10:52:37;;;;;;;13.9;12.5;;;;;;;24.7;51.0;100930;;;;
2021/07/27 10:56:37;;;;;;;13.9;12.5;;;;;;;24.4;51.6;100930;;;;
2021/07/27 10:58:37;;;;;;;13.9;12.5;;;;;;;24.3;51.7;100930;;;;
2021/07/27 11:00:37;;;;;;;13.9;12.5;;;;;;;24.1;52.0;100930;;;;
2021/07/27 11:04:37;;;;;;;13.9;12.5;;;;;;;24.2;52.2;100940;;;;
2021/07/27 11:10:37;;;;;;;13.0;11.6;;;;;;;24.4;52.3;100940;;;;
2021/07/27 11:12:38;;;;;;;13.0;11.6;;;;;;;24.2;52.4;100950;;;;
2021/07/27 11:14:37;;;;;;;13.0;11.6;;;;;;;24.0;51.6;100940;;;;
2021/07/27 11:18:37;;;;;;;13.0;11.6;;;;;;;23.6;51.4;100970;;;;
2021/07/27 11:20:37;;;;;;;13.0;11.6;;;;;;;23.1;50.8;100970;;;;
2021/07/27 11:22:37;;;;;;;13.0;11.6;;;;;;;22.9;50.4;100960;;;;
2021/07/27 11:28:37;;;;;;;13.0;11.6;;;;;;;22.8;51.7;100970;;;;
2021/07/27 11:30:37;;;;;;;4.5;4.1;;;;;;;22.5;53.1;100980;;;;
2021/07/27 11:32:37;;;;;;;4.5;4.1;;;;;;;22.7;53.0;100980;;;;
2021/07/27 11:34:38;;;;;;;4.5;4.1;;;;;;;22.8;52.7;100980;;;;
2021/07/27 11:36:37;;;;;;;4.5;4.1;;;;;;;23.0;52.7;100970;;;;
2021/07/27 11:40:37;;;;;;;4.5;4.1;;;;;;;22.9;52.6;100970;;;;
2021/07/27 11:44:37;;;;;;;4.5;4.1;;;;;;;22.8;53.1;100980;;;;
2021/07/27 11:46:39;;;;;;;4.5;4.1;;;;;;;22.6;53.0;100970;;;;
2021/07/27 11:48:37;;;;;;;4.5;4.1;;;;;;;22.7;53.2;100980;;;;
2021/07/27 11:50:39;;;;;;;5.7;5.1;;;;;;;22.6;52.9;100970;;;;
2021/07/27 11:52:37;;;;;;;5.7;5.1;;;;;;;22.8;53.1;100970;;;;
2021/07/27 11:54:37;;;;;;;5.7;5.1;;;;;;;22.9;52.8;100960;;;;
2021/07/27 11:56:37;;;;;;;5.7;5.1;;;;;;;23.1;53.1;100960;;;;
2021/07/27 11:58:37;;;;;;;5.7;5.1;;;;;;;23.2;53.2;100950;;;;
2021/07/27 12:02:37;;;;;;;5.7;5.1;;;;;;;23.5;52.7;100950;;;;
2021/07/27 12:04:37;;;;;;;5.7;5.1;;;;;;;23.7;51.5;100950;;;;
2021/07/27 12:06:37;;;;;;;5.7;5.1;;;;;;;23.8;51.0;100940;;;;
2021/07/27 12:08:37;;;;;;;5.7;5.1;;;;;;;24.0;50.4;100930;;;;
2021/07/27 12:10:37;;;;;;;6.8;6.1;;;;;;;24.2;51.3;100930;;;;
2021/07/27 12:12:37;;;;;;;6.8;6.1;;;;;;;24.5;50.2;100920;;;;
2021/07/27 12:14:38;;;;;;;6.8;6.1;;;;;;;24.4;50.1;100910;;;;
2021/07/27 12:16:37;;;;;;;6.8;6.1;;;;;;;24.6;51.0;100910;;;;
2021/07/27 12:18:37;;;;;;;6.8;6.1;;;;;;;24.8;50.7;100910;;;;
2021/07/27 12:20:37;;;;;;;6.8;6.1;;;;;;;24.7;50.2;100900;;;;
2021/07/27 12:22:37;;;;;;;6.8;6.1;;;;;;;24.8;50.0;100900;;;;
2021/07/27 12:24:37;;;;;;;6.8;6.1;;;;;;;24.9;49.5;100900;;;;
2021/07/27 12:26:38;;;;;;;6.8;6.1;;;;;;;25.0;49.8;100890;;;;
2021/07/27 12:32:42;;;;;;;12.4;11.3;;;;;;;25.3;50.1;100900;;;;
2021/07/27 12:36:38;;;;;;;12.4;11.3;;;;;;;25.4;49.7;100900;;;;
2021/07/27 12:38:37;;;;;;;12.4;11.3;;;;;;;25.5;48.8;100890;;;;
2021/07/27 12:40:37;;;;;;;12.4;11.3;;;;;;;25.6;50.2;100890;;;;
2021/07/27 12:44:37;;;;;;;12.4;11.3;;;;;;;25.5;50.2;100880;;;;
2021/07/27 12:48:37;;;;;;;12.4;11.3;;;;;;;25.9;50.0;100870;;;;
2021/07/27 12:50:37;;;;;;;12.3;11.0;;;;;;;26.0;48.6;100870;;;;
2021/07/27 12:52:37;;;;;;;12.3;11.0;;;;;;;25.7;49.3;100870;;;;
2021/07/27 12:54:37;;;;;;;12.3;11.0;;;;;;;25.9;48.8;100870;;;;
2021/07/27 12:56:38;;;;;;;12.3;11.0;;;;;;;26.1;49.1;100870;;;;
2021/07/27 13:04:37;;;;;;;12.3;11.0;;;;;;;26.3;49.4;100880;;;;
2021/07/27 13:06:37;;;;;;;12.3;11.0;;;;;;;26.4;49.1;100870;;;;
2021/07/27 13:08:37;;;;;;;12.3;11.0;;;;;;;26.3;48.1;100870;;;;
2021/07/27 13:10:37;;;;;;;11.7;10.6;;;;;;;26.1;48.4;100870;;;;
2021/07/27 13:14:37;;;;;;;11.7;10.6;;;;;;;26.3;49.4;100880;;;;
2021/07/27 13:18:37;;;;;;;11.7;10.6;;;;;;;26.4;48.2;100880;;;;
2021/07/27 13:20:37;;;;;;;11.7;10.6;;;;;;;26.5;48.5;100870;;;;
2021/07/27 13:26:37;;;;;;;11.7;10.6;;;;;;;26.4;48.3;100860;;;;
2021/07/27 13:30:37;;;;;;;12.7;11.5;;;;;;;26.5;48.3;100860;;;;
2021/07/27 13:34:37;;;;;;;12.7;11.5;;;;;;;26.4;49.2;100860;;;;
2021/07/27 13:36:37;;;;;;;12.7;11.5;;;;;;;26.2;49.2;100860;;;;
2021/07/27 13:38:37;;;;;;;12.7;11.5;;;;;;;26.0;50.0;100860;;;;
2021/07/27 13:40:37;;;;;;;12.7;11.5;;;;;;;25.5;54.3;100860;;;;
2021/07/27 13:42:37;;;;;;;12.7;11.5;;;;;;;25.1;58.2;100850;;;;
2021/07/27 13:44:37;;;;;;;12.7;11.5;;;;;;;25.0;56.9;100840;;;;
2021/07/27 13:48:37;;;;;;;12.7;11.5;;;;;;;25.1;61.2;100850;;;;
2021/07/27 13:52:37;;;;;;;19.8;17.7;;;;;;;25.0;62.1;100850;;;;
2021/07/27 13:54:37;;;;;;;19.8;17.7;;;;;;;25.1;62.6;100840;;;;
2021/07/27 13:58:37;;;;;;;19.8;17.7;;;;;;;25.2;62.4;100850;;;;
2021/07/27 14:00:37;;;;;;;19.8;17.7;;;;;;;25.3;62.3;100840;;;;
2021/07/27 14:02:37;;;;;;;19.8;17.7;;;;;;;25.1;60.8;100840;;;;
2021/07/27 14:04:37;;;;;;;19.8;17.7;;;;;;;25.2;61.9;100830;;;;
2021/07/27 14:06:37;;;;;;;19.8;17.7;;;;;;;25.3;60.9;100820;;;;
2021/07/27 14:10:37;;;;;;;16.9;15.3;;;;;;;25.4;61.4;100820;;;;
2021/07/27 14:14:37;;;;;;;16.9;15.3;;;;;;;25.5;60.6;100820;;;;
2021/07/27 14:18:37;;;;;;;16.9;15.3;;;;;;;25.6;59.9;100820;;;;
2021/07/27 14:24:37;;;;;;;16.9;15.3;;;;;;;25.5;58.7;100820;;;;
2021/07/27 14:26:37;;;;;;;16.9;15.3;;;;;;;25.6;58.7;100820;;;;
2021/07/27 14:28:37;;;;;;;16.9;15.3;;;;;;;25.7;57.7;100810;;;;
2021/07/27 14:30:37;;;;;;;12.6;11.4;;;;;;;25.6;57.1;100810;;;;
2021/07/27 14:32:37;;;;;;;12.6;11.4;;;;;;;25.7;57.6;100820;;;;
2021/07/27 14:38:37;;;;;;;12.6;11.4;;;;;;;25.8;56.7;100820;;;;
2021/07/27 14:44:37;;;;;;;12.6;11.4;;;;;;;25.7;55.9;100810;;;;
2021/07/27 14:46:38;;;;;;;12.6;11.4;;;;;;;26.0;56.4;100810;;;;
2021/07/27 14:48:37;;;;;;;12.6;11.4;;;;;;;26.1;55.9;100810;;;;
2021/07/27 14:52:37;;;;;;;13.2;12.0;;;;;;;26.3;55.1;100790;;;;
2021/07/27 14:54:37;;;;;;;13.2;12.0;;;;;;;26.5;54.5;100800;;;;
2021/07/27 14:56:37;;;;;;;13.2;12.0;;;;;;;26.3;54.4;100800;;;;
2021/07/27 14:58:37;;;;;;;13.2;12.0;;;;;;;26.1;53.8;100800;;;;
2021/07/27 15:00:37;;;;;;;13.2;12.0;;;;;;;26.4;54.4;100800;;;;
2021/07/27 15:04:37;;;;;;;13.2;12.0;;;;;;;26.6;54.1;100800;;;;
2021/07/27 15:06:37;;;;;;;13.2;12.0;;;;;;;26.5;52.4;100790;;;;
2021/07/27 15:10:41;;;;;;;16.8;12.8;;;;;;;26.7;52.6;100790;;;;
2021/07/27 15:12:37;;;;;;;16.8;12.8;;;;;;;26.6;53.0;100780;;;;
2021/07/27 15:14:39;;;;;;;16.8;12.8;;;;;;;26.7;52.9;100780;;;;
2021/07/27 15:16:37;;;;;;;16.8;12.8;;;;;;;26.8;52.7;100770;;;;
2021/07/27 15:18:37;;;;;;;16.8;12.8;;;;;;;26.6;52.8;100770;;;;
2021/07/27 15:20:37;;;;;;;16.8;12.8;;;;;;;26.4;52.4;100780;;;;
2021/07/27 15:22:37;;;;;;;16.8;12.8;;;;;;;26.3;52.1;100780;;;;
2021/07/27 15:24:37;;;;;;;16.8;12.8;;;;;;;26.4;52.5;100780;;;;
2021/07/27 15:26:37;;;;;;;16.8;12.8;;;;;;;26.3;52.5;100780;;;;
2021/07/27 15:36:37;;;;;;;13.0;11.8;;;;;;;26.1;51.9;100780;;;;
2021/07/27 15:38:37;;;;;;;13.0;11.8;;;;;;;26.0;52.0;100780;;;;
2021/07/27 15:44:37;;;;;;;13.0;11.8;;;;;;;25.9;52.1;100770;;;;
2021/07/27 15:48:37;;;;;;;13.0;11.8;;;;;;;25.8;52.3;100760;;;;
2021/07/27 15:50:37;;;;;;;12.6;11.3;;;;;;;25.5;52.7;100760;;;;
2021/07/27 15:52:37;;;;;;;12.6;11.3;;;;;;;25.4;53.1;100750;;;;
2021/07/27 15:54:37;;;;;;;12.6;11.3;;;;;;;25.5;52.8;100760;;;;
2021/07/27 15:58:38;;;;;;;12.6;11.3;;;;;;;25.4;51.9;100770;;;;
2021/07/27 16:00:37;;;;;;;12.6;11.3;;;;;;;25.2;52.3;100770;;;;
2021/07/27 16:02:46;;;;;;;12.6;11.3;;;;;;;25.2;52.2;100770;;;;
2021/07/27 16:04:38;;;;;;;12.6;11.3;;;;;;;25.1;52.8;100770;;;;
2021/07/27 16:06:37;;;;;;;12.6;11.3;;;;;;;24.9;52.7;100770;;;;
2021/07/27 16:10:37;;;;;;;13.2;12.0;;;;;;;25.0;53.9;100780;;;;
2021/07/27 16:12:37;;;;;;;13.2;12.0;;;;;;;24.8;54.1;100780;;;;
2021/07/27 16:14:38;;;;;;;13.2;12.0;;;;;;;24.5;55.7;100770;;;;
2021/07/27 16:16:38;;;;;;;13.2;12.0;;;;;;;24.4;56.0;100780;;;;
2021/07/27 16:18:37;;;;;;;13.2;12.0;;;;;;;24.2;56.4;100780;;;;
2021/07/27 16:20:37;;;;;;;13.2;12.0;;;;;;;24.0;57.1;100780;;;;
2021/07/27 16:24:37;;;;;;;13.2;12.0;;;;;;;23.7;57.8;100780;;;;
2021/07/27 16:26:37;;;;;;;13.2;12.0;;;;;;;23.4;58.5;100780;;;;
2021/07/27 16:28:37;;;;;;;13.2;12.0;;;;;;;23.1;58.5;100780;;;;
2021/07/27 16:30:37;;;;;;;11.7;10.6;;;;;;;22.7;59.3;100780;;;;
2021/07/27 16:32:37;;;;;;;11.7;10.6;;;;;;;22.6;58.2;100780;;;;
2021/07/27 16:34:37;;;;;;;11.7;10.6;;;;;;;22.8;59.1;100780;;;;
2021/07/27 16:38:38;;;;;;;11.7;10.6;;;;;;;22.5;58.6;100770;;;;
2021/07/27 16:40:37;;;;;;;11.7;10.6;;;;;;;22.6;59.2;100780;;;;
2021/07/27 16:42:40;;;;;;;11.7;10.6;;;;;;;22.3;59.1;100780;;;;
2021/07/27 16:46:38;;;;;;;11.7;10.6;;;;;;;22.0;59.7;100780;;;;
2021/07/27 16:48:38;;;;;;;11.7;10.6;;;;;;;22.2;60.0;100780;;;;
2021/07/27 16:50:37;;;;;;;7.0;6.4;;;;;;;21.8;59.9;100780;;;;
2021/07/27 16:52:37;;;;;;;7.0;6.4;;;;;;;21.7;61.0;100780;;;;
2021/07/27 16:54:37;;;;;;;7.0;6.4;;;;;;;21.8;60.7;100780;;;;
2021/07/27 16:56:38;;;;;;;7.0;6.4;;;;;;;21.4;60.7;100780;;;;
2021/07/27 16:58:37;;;;;;;7.0;6.4;;;;;;;21.2;61.5;100780;;;;
2021/07/27 17:00:37;;;;;;;7.0;6.4;;;;;;;21.3;61.7;100780;;;;
2021/07/27 17:02:37;;;;;;;7.0;6.4;;;;;;;21.2;62.4;100780;;;;
2021/07/27 17:04:37;;;;;;;7.0;6.4;;;;;;;21.5;61.8;100770;;;;
2021/07/27 17:06:40;;;;;;;7.0;6.4;;;;;;;21.3;60.8;100770;;;;
2021/07/27 17:08:37;;;;;;;7.0;6.4;;;;;;;21.5;61.9;100770;;;;
2021/07/27 17:10:37;;;;;;;5.9;5.4;;;;;;;21.3;60.3;100760;;;;
2021/07/27 17:12:37;;;;;;;5.9;5.4;;;;;;;21.4;60.0;100750;;;;
2021/07/27 17:18:37;;;;;;;5.9;5.4;;;;;;;21.6;59.5;100760;;;;
2021/07/27 17:20:37;;;;;;;5.9;5.4;;;;;;;21.5;59.9;100760;;;;
2021/07/27 17:22:41;;;;;;;5.9;5.4;;;;;;;21.4;60.6;100760;;;;
2021/07/27 17:26:37;;;;;;;5.9;5.4;;;;;;;21.3;59.8;100750;;;;
2021/07/27 17:28:37;;;;;;;5.9;5.4;;;;;;;21.1;60.5;100760;;;;
2021/07/27 17:34:39;;;;;;;6.7;6.1;;;;;;;21.0;61.0;100760;;;;
2021/07/27 17:36:37;;;;;;;6.7;6.1;;;;;;;21.3;60.5;100760;;;;
2021/07/27 17:38:37;;;;;;;6.7;6.1;;;;;;;21.4;60.6;100750;;;;
2021/07/27 17:40:37;;;;;;;6.7;6.1;;;;;;;21.2;61.1;100760;;;;
2021/07/27 17:42:37;;;;;;;6.7;6.1;;;;;;;21.4;60.5;100750;;;;
2021/07/27 17:44:37;;;;;;;6.7;6.1;;;;;;;21.2;60.9;100760;;;;
2021/07/27 17:46:37;;;;;;;6.7;6.1;;;;;;;21.4;60.4;100760;;;;
2021/07/27 17:48:37;;;;;;;6.7;6.1;;;;;;;21.2;60.3;100760;;;;
2021/07/27 17:50:37;;;;;;;8.2;7.0;;;;;;;21.3;60.9;100760;;;;
2021/07/27 17:52:37;;;;;;;8.2;7.0;;;;;;;21.4;60.3;100760;;;;
2021/07/27 17:56:37;;;;;;;8.2;7.0;;;;;;;21.5;60.1;100750;;;;
2021/07/27 17:58:37;;;;;;;8.2;7.0;;;;;;;21.7;59.9;100750;;;;
2021/07/27 18:00:39;;;;;;;8.2;7.0;;;;;;;21.2;60.2;100750;;;;
2021/07/27 18:04:37;;;;;;;8.2;7.0;;;;;;;21.1;60.6;100740;;;;
2021/07/27 18:06:37;;;;;;;8.2;7.0;;;;;;;21.4;60.7;100750;;;;
2021/07/27 18:08:37;;;;;;;8.2;7.0;;;;;;;21.5;60.2;100740;;;;
2021/07/27 18:10:37;;;;;;;6.8;6.2;;;;;;;21.8;59.2;100750;;;;
2021/07/27 18:14:38;;;;;;;6.8;6.2;;;;;;;21.4;60.3;100750;;;;
2021/07/27 18:16:38;;;;;;;6.8;6.2;;;;;;;21.6;60.5;100740;;;;
2021/07/27 18:18:37;;;;;;;6.8;6.2;;;;;;;21.4;60.9;100750;;;;
2021/07/27 18:20:40;;;;;;;6.8;6.2;;;;;;;21.5;61.0;100750;;;;
2021/07/27 18:22:37;;;;;;;6.8;6.2;;;;;;;21.6;60.0;100750;;;;
2021/07/27 18:24:37;;;;;;;6.8;6.2;;;;;;;21.8;59.9;100740;;;;
2021/07/27 18:26:38;;;;;;;6.8;6.2;;;;;;;21.6;60.4;100750;;;;